Lena — 5BYF3 — position and weather

sailwx.info

Track history (hours):
 
Tides and Currents Weather Stations Pressure Air Temp Water Temp Dewpoint Dewpoint Depression Visibility Wind Speed Wind Dir Waves Ship Positions

Lena

Last reported at 2017-Oct-12 21:12 UTC. Time now 2017-Nov-22 09:21 UTC.
Position N 17°59' W 063°06'.
Warning: this ship's position is 40 days out of date.

Length 133 m; draft 7.9 m.

Type: Cargo ship. MMSI: 210740000.

Date/timePositionNaut miles runAvg speedWind from/ knotsBaromVisibWave heightAir tempDewpointWater temp
2017-Oct-12 21:12N 17°59' W 063°06'3 0.5
2017-Oct-12 13:42N 18°00' W 063°03'1 5.0
2017-Oct-12 13:29N 18°00' W 063°04'1014.8
2017-Oct-12 12:48N 17°50' W 063°05'6815.2
2017-Oct-12 08:20N 16°50' W 062°32'515.5
2017-Oct-12 08:01N 16°46' W 062°28'815.8
2017-Oct-12 07:31N 16°40' W 062°23'815.7
2017-Oct-12 07:01N 16°34' W 062°18'815.7
2017-Oct-12 06:31N 16°27' W 062°13'815.8
2017-Oct-12 06:01N 16°21' W 062°08'815.9
2017-Oct-12 05:29N 16°15' W 062°03'715.6
2017-Oct-12 05:01N 16°09' W 061°58'815.3
2017-Oct-12 04:31N 16°03' W 061°53'816.0
2017-Oct-12 04:01N 15°56' W 061°49'1813.6
2017-Oct-12 02:39N 16°04' W 061°31'315.7
2017-Oct-12 02:30N 16°07' W 061°31'510.6
2017-Oct-12 02:00N 16°12' W 061°32'2 4.0
2017-Oct-12 01:30N 16°14' W 061°33'0 0.0
2017-Oct-12 00:58N 16°14' W 061°33'0 0.0
2017-Oct-12 00:28N 16°14' W 061°33'0 0.0
2017-Oct-11 23:58N 16°14' W 061°33'0 0.0
2017-Oct-11 23:28N 16°14' W 061°33'0 0.0
2017-Oct-11 22:58N 16°14' W 061°33'0 0.0
2017-Oct-11 22:28N 16°14' W 061°33'0 0.0
2017-Oct-11 21:58N 16°14' W 061°33'0 0.1
2017-Oct-11 21:30N 16°14' W 061°33'3 5.6
2017-Oct-11 21:00N 16°11' W 061°33'  
2017-Oct-05 17:48N 38°58' W 031°28'515.5
2017-Oct-05 17:30N 38°60' W 031°23'815.7
2017-Oct-05 17:00N 39°03' W 031°13'2416.0
2017-Oct-05 15:30N 39°14' W 030°46'816.1
2017-Oct-05 15:00N 39°18' W 030°37'816.1
2017-Oct-05 14:30N 39°22' W 030°28'816.1
2017-Oct-05 14:00N 39°26' W 030°19'816.2
2017-Oct-05 13:30N 39°29' W 030°09'816.1
2017-Oct-05 13:00N 39°33' W 030°00'816.3
2017-Oct-05 12:30N 39°37' W 029°51'816.1
2017-Oct-05 12:00N 39°40' W 029°41'815.4
2017-Oct-05 11:31N 39°44' W 029°33'815.4
2017-Oct-05 11:00N 39°47' W 029°24'815.6
2017-Oct-05 10:30N 39°51' W 029°15'815.7
2017-Oct-05 10:00N 39°55' W 029°06'816.2
2017-Oct-05 09:30N 39°59' W 028°56'816.3
2017-Oct-05 09:00N 40°03' W 028°47'816.2
2017-Oct-05 08:30N 40°06' W 028°38'10716.6
2017-Oct-05 02:05N 40°56' W 026°33'517.0
2017-Oct-05 01:47N 40°59' W 026°27'2317.1
2017-Oct-05 00:24N 41°09' W 025°59'2016.7
2017-Oct-04 23:12N 41°19' W 025°36'3416.7
2017-Oct-04 21:10N 41°35' W 024°56'316.6
2017-Oct-04 20:58N 41°37' W 024°52'816.8
2017-Oct-04 20:30N 41°40' W 024°43'816.7
2017-Oct-04 20:00N 41°44' W 024°33'1116.7
2017-Oct-04 19:19N 41°50' W 024°20'816.8
2017-Oct-04 18:51N 41°53' W 024°11'717.0
2017-Oct-04 18:26N 41°57' W 024°02'1016.7
2017-Oct-04 17:49N 42°02' W 023°50'616.9
2017-Oct-04 17:30N 42°04' W 023°43'  
Track history (hours):
 
Tides and Currents Weather Stations Pressure Air Temp Water Temp Dewpoint Dewpoint Depression Visibility Wind Speed Wind Dir Waves Ship Positions

Lena

Last reported at 2017-Oct-12 21:12 UTC. Time now 2017-Nov-22 09:21 UTC.
Position N 17°59' W 063°06'.
Warning: this ship's position is 40 days out of date.

Length 133 m; draft 7.9 m.

Type: Cargo ship. MMSI: 210740000.

Date/timePositionNaut miles runAvg speedWind from/ knotsBaromVisibWave heightAir tempDewpointWater temp
2017-Oct-12 21:12N 17°59' W 063°06'3 0.5
2017-Oct-12 13:42N 18°00' W 063°03'1 5.0
2017-Oct-12 13:29N 18°00' W 063°04'1014.8
2017-Oct-12 12:48N 17°50' W 063°05'6815.2
2017-Oct-12 08:20N 16°50' W 062°32'515.5
2017-Oct-12 08:01N 16°46' W 062°28'815.8
2017-Oct-12 07:31N 16°40' W 062°23'815.7
2017-Oct-12 07:01N 16°34' W 062°18'815.7
2017-Oct-12 06:31N 16°27' W 062°13'815.8
2017-Oct-12 06:01N 16°21' W 062°08'815.9
2017-Oct-12 05:29N 16°15' W 062°03'715.6
2017-Oct-12 05:01N 16°09' W 061°58'815.3
2017-Oct-12 04:31N 16°03' W 061°53'816.0
2017-Oct-12 04:01N 15°56' W 061°49'1813.6
2017-Oct-12 02:39N 16°04' W 061°31'315.7
2017-Oct-12 02:30N 16°07' W 061°31'510.6
2017-Oct-12 02:00N 16°12' W 061°32'2 4.0
2017-Oct-12 01:30N 16°14' W 061°33'0 0.0
2017-Oct-12 00:58N 16°14' W 061°33'0 0.0
2017-Oct-12 00:28N 16°14' W 061°33'0 0.0
2017-Oct-11 23:58N 16°14' W 061°33'0 0.0
2017-Oct-11 23:28N 16°14' W 061°33'0 0.0
2017-Oct-11 22:58N 16°14' W 061°33'0 0.0
2017-Oct-11 22:28N 16°14' W 061°33'0 0.0
2017-Oct-11 21:58N 16°14' W 061°33'0 0.1
2017-Oct-11 21:30N 16°14' W 061°33'3 5.6
2017-Oct-11 21:00N 16°11' W 061°33'  
2017-Oct-05 17:48N 38°58' W 031°28'515.5
2017-Oct-05 17:30N 38°60' W 031°23'815.7
2017-Oct-05 17:00N 39°03' W 031°13'2416.0
2017-Oct-05 15:30N 39°14' W 030°46'816.1
2017-Oct-05 15:00N 39°18' W 030°37'816.1
2017-Oct-05 14:30N 39°22' W 030°28'816.1
2017-Oct-05 14:00N 39°26' W 030°19'816.2
2017-Oct-05 13:30N 39°29' W 030°09'816.1
2017-Oct-05 13:00N 39°33' W 030°00'816.3
2017-Oct-05 12:30N 39°37' W 029°51'816.1
2017-Oct-05 12:00N 39°40' W 029°41'815.4
2017-Oct-05 11:31N 39°44' W 029°33'815.4
2017-Oct-05 11:00N 39°47' W 029°24'815.6
2017-Oct-05 10:30N 39°51' W 029°15'815.7
2017-Oct-05 10:00N 39°55' W 029°06'816.2
2017-Oct-05 09:30N 39°59' W 028°56'816.3
2017-Oct-05 09:00N 40°03' W 028°47'816.2
2017-Oct-05 08:30N 40°06' W 028°38'10716.6
2017-Oct-05 02:05N 40°56' W 026°33'517.0
2017-Oct-05 01:47N 40°59' W 026°27'2317.1
2017-Oct-05 00:24N 41°09' W 025°59'2016.7
2017-Oct-04 23:12N 41°19' W 025°36'3416.7
2017-Oct-04 21:10N 41°35' W 024°56'316.6
2017-Oct-04 20:58N 41°37' W 024°52'816.8
2017-Oct-04 20:30N 41°40' W 024°43'816.7
2017-Oct-04 20:00N 41°44' W 024°33'1116.7
2017-Oct-04 19:19N 41°50' W 024°20'816.8
2017-Oct-04 18:51N 41°53' W 024°11'717.0
2017-Oct-04 18:26N 41°57' W 024°02'1016.7
2017-Oct-04 17:49N 42°02' W 023°50'616.9
2017-Oct-04 17:30N 42°04' W 023°43'  

Dump ship's entire track history